sensor_id;sensor_type;location;lat;lon;timestamp;temperature;humidity
47252;DHT22;32991;51.374;11.586;2023-02-01T00:02:12;4.00;99.90
47252;DHT22;32991;51.374;11.586;2023-02-01T00:04:39;4.00;99.90
47252;DHT22;32991;51.374;11.586;2023-02-01T00:07:05;4.00;99.90
47252;DHT22;32991;51.374;11.586;2023-02-01T00:09:33;4.00;99.90
47252;DHT22;32991;51.374;11.586;2023-02-01T00:11:59;4.00;99.90
47252;DHT22;32991;51.374;11.586;2023-02-01T00:14:28;4.00;99.90
47252;DHT22;32991;51.374;11.586;2023-02-01T00:16:55;4.00;99.90
47252;DHT22;32991;51.374;11.586;2023-02-01T00:19:22;4.00;99.90
47252;DHT22;32991;51.374;11.586;2023-02-01T00:21:48;4.10;99.90
47252;DHT22;32991;51.374;11.586;2023-02-01T00:24:15;4.10;99.90
47252;DHT22;32991;51.374;11.586;2023-02-01T00:26:43;4.10;99.90
47252;DHT22;32991;51.374;11.586;2023-02-01T00:29:11;4.20;99.90
47252;DHT22;32991;51.374;11.586;2023-02-01T00:31:38;4.20;99.90
47252;DHT22;32991;51.374;11.586;2023-02-01T00:34:05;4.20;99.90
47252;DHT22;32991;51.374;11.586;2023-02-01T00:36:31;4.20;99.90
47252;DHT22;32991;51.374;11.586;2023-02-01T00:38:58;4.30;99.90
47252;DHT22;32991;51.374;11.586;2023-02-01T00:41:25;4.20;99.90
47252;DHT22;32991;51.374;11.586;2023-02-01T00:43:52;4.20;99.90
47252;DHT22;32991;51.374;11.586;2023-02-01T00:46:19;4.30;99.90
47252;DHT22;32991;51.374;11.586;2023-02-01T00:48:46;4.20;99.90
47252;DHT22;32991;51.374;11.586;2023-02-01T00:51:13;4.20;99.90
47252;DHT22;32991;51.374;11.586;2023-02-01T00:53:41;4.30;99.90
47252;DHT22;32991;51.374;11.586;2023-02-01T00:56:08;4.30;99.90
47252;DHT22;32991;51.374;11.586;2023-02-01T00:58:35;4.30;99.90
47252;DHT22;32991;51.374;11.586;2023-02-01T01:03:35;4.20;99.90
47252;DHT22;32991;51.374;11.586;2023-02-01T01:06:04;4.20;99.90
47252;DHT22;32991;51.374;11.586;2023-02-01T01:08:31;4.10;99.90
47252;DHT22;32991;51.374;11.586;2023-02-01T01:10:58;4.10;99.90
47252;DHT22;32991;51.374;11.586;2023-02-01T01:13:25;4.00;99.90
47252;DHT22;32991;51.374;11.586;2023-02-01T01:15:52;4.00;99.90
47252;DHT22;32991;51.374;11.586;2023-02-01T01:18:19;4.00;99.90
47252;DHT22;32991;51.374;11.586;2023-02-01T01:20:47;4.00;99.90
47252;DHT22;32991;51.374;11.586;2023-02-01T01:23:14;4.00;99.90
47252;DHT22;32991;51.374;11.586;2023-02-01T01:25:41;3.90;99.90
47252;DHT22;32991;51.374;11.586;2023-02-01T01:28:07;3.90;99.90
47252;DHT22;32991;51.374;11.586;2023-02-01T01:30:34;3.90;99.90
47252;DHT22;32991;51.374;11.586;2023-02-01T01:33:01;3.90;99.90
47252;DHT22;32991;51.374;11.586;2023-02-01T01:35:31;3.80;99.90
47252;DHT22;32991;51.374;11.586;2023-02-01T01:37:58;3.80;99.90
47252;DHT22;32991;51.374;11.586;2023-02-01T01:40:26;3.80;99.90
47252;DHT22;32991;51.374;11.586;2023-02-01T01:42:53;3.80;99.90
47252;DHT22;32991;51.374;11.586;2023-02-01T01:45:23;3.80;99.90
47252;DHT22;32991;51.374;11.586;2023-02-01T01:47:54;3.80;99.90
47252;DHT22;32991;51.374;11.586;2023-02-01T01:50:25;3.80;99.90
47252;DHT22;32991;51.374;11.586;2023-02-01T01:52:53;3.80;99.90
47252;DHT22;32991;51.374;11.586;2023-02-01T01:55:21;3.80;99.90
47252;DHT22;32991;51.374;11.586;2023-02-01T01:57:57;3.80;99.90
47252;DHT22;32991;51.374;11.586;2023-02-01T02:00:26;3.80;99.90
47252;DHT22;32991;51.374;11.586;2023-02-01T02:03:00;3.80;99.90
47252;DHT22;32991;51.374;11.586;2023-02-01T02:05:29;3.80;99.90
47252;DHT22;32991;51.374;11.586;2023-02-01T02:07:57;3.80;99.90
47252;DHT22;32991;51.374;11.586;2023-02-01T02:10:24;3.80;99.90
47252;DHT22;32991;51.374;11.586;2023-02-01T02:13:17;3.80;99.90
47252;DHT22;32991;51.374;11.586;2023-02-01T02:15:56;3.80;99.90
47252;DHT22;32991;51.374;11.586;2023-02-01T02:18:28;3.80;99.90
47252;DHT22;32991;51.374;11.586;2023-02-01T02:21:09;3.80;99.90
47252;DHT22;32991;51.374;11.586;2023-02-01T02:23:41;3.90;99.90
47252;DHT22;32991;51.374;11.586;2023-02-01T02:26:23;3.90;99.90
47252;DHT22;32991;51.374;11.586;2023-02-01T02:31:32;3.90;99.90
47252;DHT22;32991;51.374;11.586;2023-02-01T02:39:34;4.10;99.90
47252;DHT22;32991;51.374;11.586;2023-02-01T02:42:15;4.10;99.90
47252;DHT22;32991;51.374;11.586;2023-02-01T02:45:04;4.00;99.90
47252;DHT22;32991;51.374;11.586;2023-02-01T02:53:38;4.00;99.90
47252;DHT22;32991;51.374;11.586;2023-02-01T02:56:25;4.00;99.90
47252;DHT22;32991;51.374;11.586;2023-02-01T02:59:12;4.00;99.90
47252;DHT22;32991;51.374;11.586;2023-02-01T03:01:58;4.00;99.90
47252;DHT22;32991;51.374;11.586;2023-02-01T03:04:43;4.00;99.90
47252;DHT22;32991;51.374;11.586;2023-02-01T03:07:11;4.00;99.90
47252;DHT22;32991;51.374;11.586;2023-02-01T03:09:39;4.00;99.90
47252;DHT22;32991;51.374;11.586;2023-02-01T03:12:08;4.00;99.90
47252;DHT22;32991;51.374;11.586;2023-02-01T03:14:57;4.10;99.90
47252;DHT22;32991;51.374;11.586;2023-02-01T03:17:28;4.00;99.90
47252;DHT22;32991;51.374;11.586;2023-02-01T03:19:57;4.00;99.90
47252;DHT22;32991;51.374;11.586;2023-02-01T03:22:27;4.00;99.90
47252;DHT22;32991;51.374;11.586;2023-02-01T03:25:05;4.00;99.90
47252;DHT22;32991;51.374;11.586;2023-02-01T03:27:37;4.00;99.90
47252;DHT22;32991;51.374;11.586;2023-02-01T03:30:17;3.90;99.90
47252;DHT22;32991;51.374;11.586;2023-02-01T03:32:47;3.90;99.90
47252;DHT22;32991;51.374;11.586;2023-02-01T03:35:36;3.90;99.90
47252;DHT22;32991;51.374;11.586;2023-02-01T03:41:12;3.80;99.90
47252;DHT22;32991;51.374;11.586;2023-02-01T03:43:44;3.80;99.90
47252;DHT22;32991;51.374;11.586;2023-02-01T03:46:14;3.80;99.90
47252;DHT22;32991;51.374;11.586;2023-02-01T03:48:43;3.70;99.90
47252;DHT22;32991;51.374;11.586;2023-02-01T03:51:11;3.70;99.90
47252;DHT22;32991;51.374;11.586;2023-02-01T03:53:38;3.70;99.90
47252;DHT22;32991;51.374;11.586;2023-02-01T03:56:06;3.70;99.90
47252;DHT22;32991;51.374;11.586;2023-02-01T03:58:33;3.70;99.90
47252;DHT22;32991;51.374;11.586;2023-02-01T04:01:00;3.70;99.90
47252;DHT22;32991;51.374;11.586;2023-02-01T04:03:30;3.70;99.90
47252;DHT22;32991;51.374;11.586;2023-02-01T04:05:58;3.70;99.90
47252;DHT22;32991;51.374;11.586;2023-02-01T04:08:27;3.70;99.90
47252;DHT22;32991;51.374;11.586;2023-02-01T04:10:54;3.70;99.90
47252;DHT22;32991;51.374;11.586;2023-02-01T04:13:20;3.70;99.90
47252;DHT22;32991;51.374;11.586;2023-02-01T04:15:47;3.70;99.90
47252;DHT22;32991;51.374;11.586;2023-02-01T04:18:16;3.70;99.90
47252;DHT22;32991;51.374;11.586;2023-02-01T04:20:43;3.70;99.90
47252;DHT22;32991;51.374;11.586;2023-02-01T04:23:10;3.60;99.90
47252;DHT22;32991;51.374;11.586;2023-02-01T04:25:37;3.70;99.90
47252;DHT22;32991;51.374;11.586;2023-02-01T04:28:03;3.60;99.90
47252;DHT22;32991;51.374;11.586;2023-02-01T04:30:31;3.70;99.90
47252;DHT22;32991;51.374;11.586;2023-02-01T04:32:57;3.60;99.90
47252;DHT22;32991;51.374;11.586;2023-02-01T04:35:24;3.60;99.90
47252;DHT22;32991;51.374;11.586;2023-02-01T04:37:51;3.60;99.90
47252;DHT22;32991;51.374;11.586;2023-02-01T04:40:18;3.60;99.90
47252;DHT22;32991;51.374;11.586;2023-02-01T04:42:44;3.60;99.90
47252;DHT22;32991;51.374;11.586;2023-02-01T04:45:11;3.50;99.90
47252;DHT22;32991;51.374;11.586;2023-02-01T04:47:38;3.50;99.90
47252;DHT22;32991;51.374;11.586;2023-02-01T04:50:05;3.50;99.90
47252;DHT22;32991;51.374;11.586;2023-02-01T04:52:33;3.50;99.90
47252;DHT22;32991;51.374;11.586;2023-02-01T04:55:00;3.50;99.90
47252;DHT22;32991;51.374;11.586;2023-02-01T04:57:28;3.40;99.90
47252;DHT22;32991;51.374;11.586;2023-02-01T04:59:55;3.40;99.90
47252;DHT22;32991;51.374;11.586;2023-02-01T05:02:21;3.50;99.90
47252;DHT22;32991;51.374;11.586;2023-02-01T05:04:48;3.40;99.90
47252;DHT22;32991;51.374;11.586;2023-02-01T05:07:15;3.40;99.90
47252;DHT22;32991;51.374;11.586;2023-02-01T05:09:41;3.30;99.90
47252;DHT22;32991;51.374;11.586;2023-02-01T05:12:09;3.30;99.90
47252;DHT22;32991;51.374;11.586;2023-02-01T05:14:54;3.30;99.90
47252;DHT22;32991;51.374;11.586;2023-02-01T05:17:21;3.30;99.90
47252;DHT22;32991;51.374;11.586;2023-02-01T05:19:48;3.20;99.90
47252;DHT22;32991;51.374;11.586;2023-02-01T05:22:14;3.10;99.90
47252;DHT22;32991;51.374;11.586;2023-02-01T05:24:41;3.10;99.90
47252;DHT22;32991;51.374;11.586;2023-02-01T05:27:08;3.10;99.90
47252;DHT22;32991;51.374;11.586;2023-02-01T05:29:34;3.20;99.90
47252;DHT22;32991;51.374;11.586;2023-02-01T05:32:01;3.10;99.90
47252;DHT22;32991;51.374;11.586;2023-02-01T05:34:47;3.10;99.90
47252;DHT22;32991;51.374;11.586;2023-02-01T05:37:13;3.10;99.90
47252;DHT22;32991;51.374;11.586;2023-02-01T05:39:40;3.10;99.90
47252;DHT22;32991;51.374;11.586;2023-02-01T05:42:06;3.20;99.90
47252;DHT22;32991;51.374;11.586;2023-02-01T05:44:33;3.20;99.90
47252;DHT22;32991;51.374;11.586;2023-02-01T05:47:00;3.20;99.90
47252;DHT22;32991;51.374;11.586;2023-02-01T05:49:26;3.30;99.90
47252;DHT22;32991;51.374;11.586;2023-02-01T05:51:53;3.30;99.90
47252;DHT22;32991;51.374;11.586;2023-02-01T05:54:20;3.30;99.90
47252;DHT22;32991;51.374;11.586;2023-02-01T05:56:46;3.30;99.90
47252;DHT22;32991;51.374;11.586;2023-02-01T05:59:13;3.30;99.90
47252;DHT22;32991;51.374;11.586;2023-02-01T06:01:40;3.40;99.90
47252;DHT22;32991;51.374;11.586;2023-02-01T06:04:07;3.40;99.90
47252;DHT22;32991;51.374;11.586;2023-02-01T06:06:33;3.40;99.90
47252;DHT22;32991;51.374;11.586;2023-02-01T06:09:00;3.40;99.90
47252;DHT22;32991;51.374;11.586;2023-02-01T06:11:27;3.30;99.90
47252;DHT22;32991;51.374;11.586;2023-02-01T06:13:59;3.30;99.90
47252;DHT22;32991;51.374;11.586;2023-02-01T06:16:25;3.20;99.90
47252;DHT22;32991;51.374;11.586;2023-02-01T06:18:52;3.20;99.90
47252;DHT22;32991;51.374;11.586;2023-02-01T06:21:20;3.30;99.90
47252;DHT22;32991;51.374;11.586;2023-02-01T06:23:51;3.20;99.90
47252;DHT22;32991;51.374;11.586;2023-02-01T06:26:17;3.20;99.90
47252;DHT22;32991;51.374;11.586;2023-02-01T06:28:44;3.20;99.90
47252;DHT22;32991;51.374;11.586;2023-02-01T06:31:11;3.20;99.90
47252;DHT22;32991;51.374;11.586;2023-02-01T06:33:38;3.20;99.90
47252;DHT22;32991;51.374;11.586;2023-02-01T06:36:05;3.30;99.90
47252;DHT22;32991;51.374;11.586;2023-02-01T06:38:33;3.40;99.90
47252;DHT22;32991;51.374;11.586;2023-02-01T06:41:01;3.40;99.90
47252;DHT22;32991;51.374;11.586;2023-02-01T06:43:29;3.40;99.90
47252;DHT22;32991;51.374;11.586;2023-02-01T06:45:59;3.40;99.90
47252;DHT22;32991;51.374;11.586;2023-02-01T06:48:26;3.50;99.90
47252;DHT22;32991;51.374;11.586;2023-02-01T06:50:53;3.60;99.90
47252;DHT22;32991;51.374;11.586;2023-02-01T06:53:20;3.60;99.90
47252;DHT22;32991;51.374;11.586;2023-02-01T06:55:54;3.60;99.90
47252;DHT22;32991;51.374;11.586;2023-02-01T06:58:20;3.60;99.90
47252;DHT22;32991;51.374;11.586;2023-02-01T07:00:47;3.60;99.90
47252;DHT22;32991;51.374;11.586;2023-02-01T07:03:14;3.60;99.90
47252;DHT22;32991;51.374;11.586;2023-02-01T07:05:41;3.60;99.90
47252;DHT22;32991;51.374;11.586;2023-02-01T07:08:08;3.60;99.90
47252;DHT22;32991;51.374;11.586;2023-02-01T07:10:34;3.60;99.90
47252;DHT22;32991;51.374;11.586;2023-02-01T07:13:01;3.60;99.90
47252;DHT22;32991;51.374;11.586;2023-02-01T07:15:28;3.60;99.90
47252;DHT22;32991;51.374;11.586;2023-02-01T07:17:55;3.70;99.90
47252;DHT22;32991;51.374;11.586;2023-02-01T07:20:21;3.60;99.90
47252;DHT22;32991;51.374;11.586;2023-02-01T07:22:49;3.60;99.90
47252;DHT22;32991;51.374;11.586;2023-02-01T07:25:20;3.70;99.90
47252;DHT22;32991;51.374;11.586;2023-02-01T07:27:47;3.70;99.90
47252;DHT22;32991;51.374;11.586;2023-02-01T07:30:13;3.60;99.90
47252;DHT22;32991;51.374;11.586;2023-02-01T07:32:41;3.60;99.90
47252;DHT22;32991;51.374;11.586;2023-02-01T07:35:09;3.60;99.90
47252;DHT22;32991;51.374;11.586;2023-02-01T07:37:36;3.70;99.90
47252;DHT22;32991;51.374;11.586;2023-02-01T07:40:02;3.70;99.90
47252;DHT22;32991;51.374;11.586;2023-02-01T07:42:29;3.80;99.90
47252;DHT22;32991;51.374;11.586;2023-02-01T07:44:56;3.80;99.90
47252;DHT22;32991;51.374;11.586;2023-02-01T07:47:28;3.80;99.90
47252;DHT22;32991;51.374;11.586;2023-02-01T07:49:55;3.80;99.90
47252;DHT22;32991;51.374;11.586;2023-02-01T07:52:22;3.80;99.90
47252;DHT22;32991;51.374;11.586;2023-02-01T07:54:49;3.80;99.90
47252;DHT22;32991;51.374;11.586;2023-02-01T07:57:16;3.70;99.90
47252;DHT22;32991;51.374;11.586;2023-02-01T07:59:42;3.70;99.90
47252;DHT22;32991;51.374;11.586;2023-02-01T08:02:38;3.70;99.90
47252;DHT22;32991;51.374;11.586;2023-02-01T08:05:04;3.70;99.90
47252;DHT22;32991;51.374;11.586;2023-02-01T08:07:32;3.60;99.90
47252;DHT22;32991;51.374;11.586;2023-02-01T08:09:58;3.50;99.90
47252;DHT22;32991;51.374;11.586;2023-02-01T08:12:26;3.40;99.90
47252;DHT22;32991;51.374;11.586;2023-02-01T08:14:53;3.30;99.90
47252;DHT22;32991;51.374;11.586;2023-02-01T08:17:20;3.20;99.90
47252;DHT22;32991;51.374;11.586;2023-02-01T08:19:47;3.20;99.90
47252;DHT22;32991;51.374;11.586;2023-02-01T08:22:13;3.10;99.90
47252;DHT22;32991;51.374;11.586;2023-02-01T08:24:40;3.00;99.90
47252;DHT22;32991;51.374;11.586;2023-02-01T08:27:08;3.10;99.90
47252;DHT22;32991;51.374;11.586;2023-02-01T08:29:34;3.20;99.90
47252;DHT22;32991;51.374;11.586;2023-02-01T08:32:01;3.30;99.90
47252;DHT22;32991;51.374;11.586;2023-02-01T08:34:28;3.30;99.90
47252;DHT22;32991;51.374;11.586;2023-02-01T08:36:55;3.50;99.90
47252;DHT22;32991;51.374;11.586;2023-02-01T08:39:24;3.50;99.90
47252;DHT22;32991;51.374;11.586;2023-02-01T08:41:51;3.60;99.90
47252;DHT22;32991;51.374;11.586;2023-02-01T08:44:37;3.60;99.90
47252;DHT22;32991;51.374;11.586;2023-02-01T08:47:03;3.60;99.90
47252;DHT22;32991;51.374;11.586;2023-02-01T08:49:30;3.60;99.90
47252;DHT22;32991;51.374;11.586;2023-02-01T08:51:57;3.60;99.90
47252;DHT22;32991;51.374;11.586;2023-02-01T08:54:29;3.60;99.90
47252;DHT22;32991;51.374;11.586;2023-02-01T08:56:56;3.60;99.90
47252;DHT22;32991;51.374;11.586;2023-02-01T08:59:22;3.60;99.90
47252;DHT22;32991;51.374;11.586;2023-02-01T09:01:52;3.50;99.90
47252;DHT22;32991;51.374;11.586;2023-02-01T09:04:19;3.50;99.90
47252;DHT22;32991;51.374;11.586;2023-02-01T09:06:46;3.60;99.90
47252;DHT22;32991;51.374;11.586;2023-02-01T09:09:13;3.60;99.90
47252;DHT22;32991;51.374;11.586;2023-02-01T09:11:39;3.60;99.90
47252;DHT22;32991;51.374;11.586;2023-02-01T09:14:06;3.60;99.90
47252;DHT22;32991;51.374;11.586;2023-02-01T09:16:33;3.70;99.90
47252;DHT22;32991;51.374;11.586;2023-02-01T09:19:00;3.70;99.90
47252;DHT22;32991;51.374;11.586;2023-02-01T09:21:46;3.70;99.90
47252;DHT22;32991;51.374;11.586;2023-02-01T09:24:13;3.80;99.90
47252;DHT22;32991;51.374;11.586;2023-02-01T09:26:40;3.80;99.90
47252;DHT22;32991;51.374;11.586;2023-02-01T09:29:06;3.80;99.90
47252;DHT22;32991;51.374;11.586;2023-02-01T09:31:39;3.90;99.90
47252;DHT22;32991;51.374;11.586;2023-02-01T09:34:15;4.10;99.90
47252;DHT22;32991;51.374;11.586;2023-02-01T09:36:42;5.50;99.90
47252;DHT22;32991;51.374;11.586;2023-02-01T09:39:08;6.80;99.90
47252;DHT22;32991;51.374;11.586;2023-02-01T09:41:38;7.40;99.90
47252;DHT22;32991;51.374;11.586;2023-02-01T09:46:42;7.20;99.90
47252;DHT22;32991;51.374;11.586;2023-02-01T09:49:13;6.90;99.90
47252;DHT22;32991;51.374;11.586;2023-02-01T09:51:45;6.70;99.90
47252;DHT22;32991;51.374;11.586;2023-02-01T09:54:19;6.40;99.90
47252;DHT22;32991;51.374;11.586;2023-02-01T09:56:54;6.30;99.90
47252;DHT22;32991;51.374;11.586;2023-02-01T09:59:24;6.50;99.90
47252;DHT22;32991;51.374;11.586;2023-02-01T10:01:54;7.40;99.90
47252;DHT22;32991;51.374;11.586;2023-02-01T10:04:22;7.80;99.90
47252;DHT22;32991;51.374;11.586;2023-02-01T10:09:21;8.00;99.90
47252;DHT22;32991;51.374;11.586;2023-02-01T10:11:54;7.80;99.90
47252;DHT22;32991;51.374;11.586;2023-02-01T10:22:40;6.60;99.90
47252;DHT22;32991;51.374;11.586;2023-02-01T10:25:41;6.80;99.90
47252;DHT22;32991;51.374;11.586;2023-02-01T10:28:15;7.20;99.90
47252;DHT22;32991;51.374;11.586;2023-02-01T10:30:43;7.90;99.90
47252;DHT22;32991;51.374;11.586;2023-02-01T10:33:18;8.30;99.90
47252;DHT22;32991;51.374;11.586;2023-02-01T10:35:45;7.80;99.90
47252;DHT22;32991;51.374;11.586;2023-02-01T10:38:17;7.20;99.90
47252;DHT22;32991;51.374;11.586;2023-02-01T10:40:44;6.70;99.90
47252;DHT22;32991;51.374;11.586;2023-02-01T10:43:11;6.50;99.90
47252;DHT22;32991;51.374;11.586;2023-02-01T10:45:38;6.50;99.90
47252;DHT22;32991;51.374;11.586;2023-02-01T10:48:06;6.50;99.90
47252;DHT22;32991;51.374;11.586;2023-02-01T10:50:49;6.40;99.90
47252;DHT22;32991;51.374;11.586;2023-02-01T10:53:25;6.20;99.90
47252;DHT22;32991;51.374;11.586;2023-02-01T10:55:54;6.10;99.90
47252;DHT22;32991;51.374;11.586;2023-02-01T10:58:28;5.90;99.90
47252;DHT22;32991;51.374;11.586;2023-02-01T11:01:00;5.70;99.90
47252;DHT22;32991;51.374;11.586;2023-02-01T11:03:33;5.70;99.90
47252;DHT22;32991;51.374;11.586;2023-02-01T11:06:01;5.60;99.90
47252;DHT22;32991;51.374;11.586;2023-02-01T11:08:29;5.70;99.90
47252;DHT22;32991;51.374;11.586;2023-02-01T11:10:57;5.80;99.90
47252;DHT22;32991;51.374;11.586;2023-02-01T11:13:27;5.90;99.90
47252;DHT22;32991;51.374;11.586;2023-02-01T11:15:55;6.10;99.90
47252;DHT22;32991;51.374;11.586;2023-02-01T11:18:35;6.20;99.90
47252;DHT22;32991;51.374;11.586;2023-02-01T11:21:03;6.20;99.90
47252;DHT22;32991;51.374;11.586;2023-02-01T11:23:30;6.20;99.90
47252;DHT22;32991;51.374;11.586;2023-02-01T11:26:00;6.30;99.90
47252;DHT22;32991;51.374;11.586;2023-02-01T11:28:29;6.40;99.90
47252;DHT22;32991;51.374;11.586;2023-02-01T11:30:58;6.50;99.90
47252;DHT22;32991;51.374;11.586;2023-02-01T11:33:29;6.80;99.90
47252;DHT22;32991;51.374;11.586;2023-02-01T11:35:57;7.00;99.90
47252;DHT22;32991;51.374;11.586;2023-02-01T11:38:31;7.10;99.90
47252;DHT22;32991;51.374;11.586;2023-02-01T11:41:12;7.20;99.90
47252;DHT22;32991;51.374;11.586;2023-02-01T11:43:50;7.30;99.90
47252;DHT22;32991;51.374;11.586;2023-02-01T11:46:17;7.30;99.90
47252;DHT22;32991;51.374;11.586;2023-02-01T11:48:52;7.20;99.90
47252;DHT22;32991;51.374;11.586;2023-02-01T11:56:56;7.40;99.90
47252;DHT22;32991;51.374;11.586;2023-02-01T11:59:31;7.40;99.90
47252;DHT22;32991;51.374;11.586;2023-02-01T12:02:18;7.50;99.90
47252;DHT22;32991;51.374;11.586;2023-02-01T12:10:24;7.60;99.90
47252;DHT22;32991;51.374;11.586;2023-02-01T12:13:01;7.50;99.90
47252;DHT22;32991;51.374;11.586;2023-02-01T12:15:36;7.50;99.90
47252;DHT22;32991;51.374;11.586;2023-02-01T12:18:10;7.40;99.90
47252;DHT22;32991;51.374;11.586;2023-02-01T12:28:48;7.70;99.90
47252;DHT22;32991;51.374;11.586;2023-02-01T12:34:07;7.70;99.90
47252;DHT22;32991;51.374;11.586;2023-02-01T12:36:43;7.60;99.90
47252;DHT22;32991;51.374;11.586;2023-02-01T12:41:43;7.30;99.90
47252;DHT22;32991;51.374;11.586;2023-02-01T12:44:12;7.20;99.90
47252;DHT22;32991;51.374;11.586;2023-02-01T12:49:23;7.00;99.90
47252;DHT22;32991;51.374;11.586;2023-02-01T12:51:57;6.90;99.90
47252;DHT22;32991;51.374;11.586;2023-02-01T12:54:40;6.80;99.90
47252;DHT22;32991;51.374;11.586;2023-02-01T12:57:25;6.80;99.90
47252;DHT22;32991;51.374;11.586;2023-02-01T13:00:00;6.80;99.90
47252;DHT22;32991;51.374;11.586;2023-02-01T13:02:39;6.70;99.90
47252;DHT22;32991;51.374;11.586;2023-02-01T13:05:17;6.70;99.90
47252;DHT22;32991;51.374;11.586;2023-02-01T13:07:48;6.70;99.90
47252;DHT22;32991;51.374;11.586;2023-02-01T13:10:35;6.70;99.90
47252;DHT22;32991;51.374;11.586;2023-02-01T13:15:33;6.60;99.90
47252;DHT22;32991;51.374;11.586;2023-02-01T13:18:03;6.50;99.90
47252;DHT22;32991;51.374;11.586;2023-02-01T13:20:32;6.50;99.90
47252;DHT22;32991;51.374;11.586;2023-02-01T13:23:02;6.50;99.90
47252;DHT22;32991;51.374;11.586;2023-02-01T13:28:14;6.60;99.90
47252;DHT22;32991;51.374;11.586;2023-02-01T13:33:31;6.50;99.90
47252;DHT22;32991;51.374;11.586;2023-02-01T13:43:51;6.30;99.90
47252;DHT22;32991;51.374;11.586;2023-02-01T13:46:19;6.50;99.90
47252;DHT22;32991;51.374;11.586;2023-02-01T13:48:50;6.70;99.90
47252;DHT22;32991;51.374;11.586;2023-02-01T13:51:18;6.80;99.90
47252;DHT22;32991;51.374;11.586;2023-02-01T13:53:55;7.00;99.90
47252;DHT22;32991;51.374;11.586;2023-02-01T13:56:22;6.90;99.90
47252;DHT22;32991;51.374;11.586;2023-02-01T13:58:50;6.80;99.90
47252;DHT22;32991;51.374;11.586;2023-02-01T14:03:48;6.60;99.90
47252;DHT22;32991;51.374;11.586;2023-02-01T14:06:17;6.50;99.90
47252;DHT22;32991;51.374;11.586;2023-02-01T14:08:44;6.50;99.90
47252;DHT22;32991;51.374;11.586;2023-02-01T14:12:04;6.40;99.90
47252;DHT22;32991;51.374;11.586;2023-02-01T14:16:44;6.20;99.90
47252;DHT22;32991;51.374;11.586;2023-02-01T14:19:31;6.20;99.90
47252;DHT22;32991;51.374;11.586;2023-02-01T14:24:29;6.30;99.90
47252;DHT22;32991;51.374;11.586;2023-02-01T14:27:18;6.20;99.90
47252;DHT22;32991;51.374;11.586;2023-02-01T14:29:44;6.20;99.90
47252;DHT22;32991;51.374;11.586;2023-02-01T14:32:21;6.20;99.90
47252;DHT22;32991;51.374;11.586;2023-02-01T14:34:50;6.20;99.90
47252;DHT22;32991;51.374;11.586;2023-02-01T14:39:50;6.00;99.90
47252;DHT22;32991;51.374;11.586;2023-02-01T14:42:20;6.00;99.90
47252;DHT22;32991;51.374;11.586;2023-02-01T14:44:50;5.80;99.90
47252;DHT22;32991;51.374;11.586;2023-02-01T14:47:27;5.70;99.90
47252;DHT22;32991;51.374;11.586;2023-02-01T14:50:10;5.60;99.90
47252;DHT22;32991;51.374;11.586;2023-02-01T14:52:43;5.50;99.90
47252;DHT22;32991;51.374;11.586;2023-02-01T14:55:15;5.40;99.90
47252;DHT22;32991;51.374;11.586;2023-02-01T14:57:43;5.30;99.90
47252;DHT22;32991;51.374;11.586;2023-02-01T15:00:19;5.30;99.90
47252;DHT22;32991;51.374;11.586;2023-02-01T15:02:46;5.30;99.90
47252;DHT22;32991;51.374;11.586;2023-02-01T15:05:21;5.20;99.90
47252;DHT22;32991;51.374;11.586;2023-02-01T15:07:50;5.20;99.90
47252;DHT22;32991;51.374;11.586;2023-02-01T15:10:18;5.30;99.90
47252;DHT22;32991;51.374;11.586;2023-02-01T15:12:45;5.20;99.90
47252;DHT22;32991;51.374;11.586;2023-02-01T15:15:16;5.40;99.90
47252;DHT22;32991;51.374;11.586;2023-02-01T15:17:56;5.40;99.90
47252;DHT22;32991;51.374;11.586;2023-02-01T15:20:24;5.50;99.90
47252;DHT22;32991;51.374;11.586;2023-02-01T15:22:53;5.60;99.90
47252;DHT22;32991;51.374;11.586;2023-02-01T15:25:21;5.60;99.90
47252;DHT22;32991;51.374;11.586;2023-02-01T15:27:48;5.60;99.90
47252;DHT22;32991;51.374;11.586;2023-02-01T15:30:17;5.70;99.90
47252;DHT22;32991;51.374;11.586;2023-02-01T15:32:44;5.60;99.90
47252;DHT22;32991;51.374;11.586;2023-02-01T15:43:24;5.40;99.90
47252;DHT22;32991;51.374;11.586;2023-02-01T15:45:52;5.30;99.90
47252;DHT22;32991;51.374;11.586;2023-02-01T15:48:22;5.20;99.90
47252;DHT22;32991;51.374;11.586;2023-02-01T15:50:50;5.00;99.90
47252;DHT22;32991;51.374;11.586;2023-02-01T15:53:18;4.90;99.90
47252;DHT22;32991;51.374;11.586;2023-02-01T15:55:46;4.70;99.90
47252;DHT22;32991;51.374;11.586;2023-02-01T15:58:16;4.30;99.90
47252;DHT22;32991;51.374;11.586;2023-02-01T16:00:48;3.70;99.90
47252;DHT22;32991;51.374;11.586;2023-02-01T16:03:25;3.10;99.90
47252;DHT22;32991;51.374;11.586;2023-02-01T16:05:56;2.60;99.90
47252;DHT22;32991;51.374;11.586;2023-02-01T16:08:24;2.20;99.90
47252;DHT22;32991;51.374;11.586;2023-02-01T16:10:52;2.00;99.90
47252;DHT22;32991;51.374;11.586;2023-02-01T16:13:19;1.90;99.90
47252;DHT22;32991;51.374;11.586;2023-02-01T16:15:47;1.80;99.90
47252;DHT22;32991;51.374;11.586;2023-02-01T16:18:14;1.80;99.90
47252;DHT22;32991;51.374;11.586;2023-02-01T16:20:44;1.80;99.90
47252;DHT22;32991;51.374;11.586;2023-02-01T16:23:11;1.80;99.90
47252;DHT22;32991;51.374;11.586;2023-02-01T16:25:39;1.80;99.90
47252;DHT22;32991;51.374;11.586;2023-02-01T16:28:05;1.80;99.90
47252;DHT22;32991;51.374;11.586;2023-02-01T16:30:32;1.90;99.90
47252;DHT22;32991;51.374;11.586;2023-02-01T16:33:00;1.90;99.90
47252;DHT22;32991;51.374;11.586;2023-02-01T16:35:36;1.90;99.90
47252;DHT22;32991;51.374;11.586;2023-02-01T16:38:03;1.90;99.90
47252;DHT22;32991;51.374;11.586;2023-02-01T16:40:35;1.90;99.90
47252;DHT22;32991;51.374;11.586;2023-02-01T16:43:01;1.90;99.90
47252;DHT22;32991;51.374;11.586;2023-02-01T16:45:28;1.90;99.90
47252;DHT22;32991;51.374;11.586;2023-02-01T16:47:55;1.90;99.90
47252;DHT22;32991;51.374;11.586;2023-02-01T16:50:24;1.90;99.90
47252;DHT22;32991;51.374;11.586;2023-02-01T16:52:52;1.90;99.90
47252;DHT22;32991;51.374;11.586;2023-02-01T16:55:20;1.80;99.90
47252;DHT22;32991;51.374;11.586;2023-02-01T16:57:50;1.80;99.90
47252;DHT22;32991;51.374;11.586;2023-02-01T17:00:17;1.80;99.90
47252;DHT22;32991;51.374;11.586;2023-02-01T17:02:52;1.80;99.90
47252;DHT22;32991;51.374;11.586;2023-02-01T17:05:19;1.70;99.90
47252;DHT22;32991;51.374;11.586;2023-02-01T17:07:45;1.70;99.90
47252;DHT22;32991;51.374;11.586;2023-02-01T17:10:23;1.70;99.90
47252;DHT22;32991;51.374;11.586;2023-02-01T17:13:09;1.70;99.90
47252;DHT22;32991;51.374;11.586;2023-02-01T17:15:37;1.70;99.90
47252;DHT22;32991;51.374;11.586;2023-02-01T17:18:04;1.60;99.90
47252;DHT22;32991;51.374;11.586;2023-02-01T17:20:31;1.60;99.90
47252;DHT22;32991;51.374;11.586;2023-02-01T17:22:59;1.60;99.90